Time;durP1;ratioP1;P1;durP2;ratioP2;P2;SDS_P1;SDS_P2;PMS_P1;PMS_P2;Temp;Humidity;BMP_temperature;BMP_pressure;BME280_temperature;BME280_humidity;BME280_pressure;Samples;Min_cycle;Max_cycle;Signal;HPM_P1;HPM_P2
2023/02/26 00:03:22;;;;;;;;;;;;;;;;;;8451622;27;27944;-83
2023/02/26 00:07:22;;;;;;;;;;;;;;;;;;8451630;27;27290;-83
2023/02/26 00:11:22;;;;;;;;;;;;;;;;;;8447325;27;28793;-81
2023/02/26 00:15:22;;;;;;;;;;;;;;;;;;8447595;27;28859;-83
2023/02/26 00:19:23;;;;;;;;;;;;;;;;;;8453831;27;28412;-80
2023/02/26 00:23:23;;;;;;;;;;;;;;;;;;8450438;27;28494;-83
2023/02/26 00:27:23;;;;;;;;;;;;;;;;;;8454410;27;28592;-83
2023/02/26 00:31:23;;;;;;;;;;;;;;;;;;8452735;27;28096;-81
2023/02/26 00:35:23;;;;;;;;;;;;;;;;;;8451776;27;28811;-83
2023/02/26 00:39:23;;;;;;;;;;;;;;;;;;8454123;27;28456;-82
2023/02/26 00:43:25;;;;;;;;;;;;;;;;;;8451747;27;27635;-83
2023/02/26 00:47:25;;;;;;;;;;;;;;;;;;8451949;27;30371;-82
2023/02/26 00:51:25;;;;;;;;;;;;;;;;;;8438517;27;29816;-82
2023/02/26 00:55:25;;;;;;;;;;;;;;;;;;8453527;27;28675;-81
2023/02/26 00:59:25;;;;;;;;;;;;;;;;;;8432133;27;28578;-82
2023/02/26 01:03:25;;;;;;;;;;;;;;;;;;8455813;27;27616;-80
2023/02/26 01:07:25;;;;;;;;;;;;;;;;;;8431657;27;28505;-81
2023/02/26 01:11:25;;;;;;;;;;;;;;;;;;8428626;27;28489;-82
2023/02/26 01:15:26;;;;;;;;;;;;;;;;;;8450697;27;27567;-82
2023/02/26 01:19:26;;;;;;;;;;;;;;;;;;8442601;27;28878;-82
2023/02/26 01:23:26;;;;;;;;;;;;;;;;;;8439446;27;28753;-82
2023/02/26 01:27:26;;;;;;;;;;;;;;;;;;8426089;27;28770;-83
2023/02/26 01:31:26;;;;;;;;;;;;;;;;;;8437400;27;27306;-82
2023/02/26 01:35:26;;;;;;;;;;;;;;;;;;8442028;27;28128;-82
2023/02/26 01:39:26;;;;;;;;;;;;;;;;;;8443050;27;27345;-82
2023/02/26 01:43:26;;;;;;;;;;;;;;;;;;8442646;27;28496;-82
2023/02/26 01:47:26;;;;;;;;;;;;;;;;;;8444905;27;27446;-83
2023/02/26 01:51:26;;;;;;;;;;;;;;;;;;8441315;27;27353;-82
2023/02/26 01:55:26;;;;;;;;;;;;;;;;;;8436949;27;28106;-82
2023/02/26 01:59:26;;;;;;;;;;;;;;;;;;8440523;27;27212;-82
2023/02/26 02:03:26;;;;;;;;;;;;;;;;;;8440175;27;27459;-82
2023/02/26 02:07:27;;;;;;;;;;;;;;;;;;8442569;27;27564;-84
2023/02/26 02:11:27;;;;;;;;;;;;;;;;;;8439436;27;27421;-82
2023/02/26 02:15:27;;;;;;;;;;;;;;;;;;8443252;27;28716;-82
2023/02/26 02:19:27;;;;;;;;;;;;;;;;;;8440559;27;28533;-82
2023/02/26 02:23:27;;;;;;;;;;;;;;;;;;8436357;27;28490;-84
2023/02/26 02:27:27;;;;;;;;;;;;;;;;;;8441687;27;27520;-84
2023/02/26 02:31:27;;;;;;;;;;;;;;;;;;8440615;27;28373;-84
2023/02/26 02:35:27;;;;;;;;;;;;;;;;;;8440581;27;27419;-83
2023/02/26 02:39:27;;;;;;;;;;;;;;;;;;8438366;27;28428;-83
2023/02/26 02:43:27;;;;;;;;;;;;;;;;;;8440190;27;27234;-83
2023/02/26 02:47:27;;;;;;;;;;;;;;;;;;8439640;27;28813;-83
2023/02/26 02:51:27;;;;;;;;;;;;;;;;;;8437853;27;29349;-84
2023/02/26 02:55:28;;;;;;;;;;;;;;;;;;8444135;27;28581;-84
2023/02/26 02:59:28;;;;;;;;;;;;;;;;;;8443156;27;27577;-82
2023/02/26 03:03:28;;;;;;;;;;;;;;;;;;8440979;27;28408;-82
2023/02/26 03:07:28;;;;;;;;;;;;;;;;;;8444185;27;27401;-82
2023/02/26 03:11:28;;;;;;;;;;;;;;;;;;8441632;27;27856;-83
2023/02/26 03:15:28;;;;;;;;;;;;;;;;;;8438608;27;29037;-82
2023/02/26 03:19:28;;;;;;;;;;;;;;;;;;8436368;27;28234;-82
2023/02/26 03:23:28;;;;;;;;;;;;;;;;;;8438875;27;28516;-83
2023/02/26 03:27:28;;;;;;;;;;;;;;;;;;8439822;27;28531;-83
2023/02/26 03:31:28;;;;;;;;;;;;;;;;;;8437483;27;28486;-83
2023/02/26 03:35:28;;;;;;;;;;;;;;;;;;8442063;27;27328;-83
2023/02/26 03:39:28;;;;;;;;;;;;;;;;;;8442427;27;28260;-84
2023/02/26 03:43:28;;;;;;;;;;;;;;;;;;8440272;27;28537;-82
2023/02/26 03:47:29;;;;;;;;;;;;;;;;;;8434388;27;29145;-83
2023/02/26 03:51:29;;;;;;;;;;;;;;;;;;8435032;27;28082;-83
2023/02/26 03:55:29;;;;;;;;;;;;;;;;;;8437907;27;28492;-82
2023/02/26 03:59:29;;;;;;;;;;;;;;;;;;8417567;27;28568;-83
2023/02/26 04:03:29;;;;;;;;;;;;;;;;;;8440196;27;28579;-83
2023/02/26 04:07:29;;;;;;;;;;;;;;;;;;8438028;27;28429;-83
2023/02/26 04:11:29;;;;;;;;;;;;;;;;;;8439293;27;28668;-82
2023/02/26 04:15:29;;;;;;;;;;;;;;;;;;8438654;27;28833;-83
2023/02/26 04:19:29;;;;;;;;;;;;;;;;;;8433855;27;29330;-82
2023/02/26 04:23:29;;;;;;;;;;;;;;;;;;8438183;27;27342;-82
2023/02/26 04:27:29;;;;;;;;;;;;;;;;;;8437313;27;28529;-82
2023/02/26 04:31:30;;;;;;;;;;;;;;;;;;8436237;27;28617;-83
2023/02/26 04:35:30;;;;;;;;;;;;;;;;;;8420582;27;28695;-83
2023/02/26 04:39:30;;;;;;;;;;;;;;;;;;8444161;27;28053;-83
2023/02/26 04:43:30;;;;;;;;;;;;;;;;;;8431359;27;28807;-83
2023/02/26 04:47:30;;;;;;;;;;;;;;;;;;8451896;27;28180;-82
2023/02/26 04:51:30;;;;;;;;;;;;;;;;;;8453339;27;27734;-82
2023/02/26 04:55:30;;;;;;;;;;;;;;;;;;8453602;27;28405;-82
2023/02/26 04:59:30;;;;;;;;;;;;;;;;;;8452738;27;28851;-83
2023/02/26 05:03:30;;;;;;;;;;;;;;;;;;8430569;27;29938;-82
2023/02/26 05:07:31;;;;;;;;;;;;;;;;;;8449824;27;27434;-82
2023/02/26 05:11:31;;;;;;;;;;;;;;;;;;8450341;27;28821;-81
2023/02/26 05:15:31;;;;;;;;;;;;;;;;;;8455112;27;28110;-82
2023/02/26 05:19:31;;;;;;;;;;;;;;;;;;8449715;27;27378;-81
2023/02/26 05:23:31;;;;;;;;;;;;;;;;;;8449568;27;27246;-82
2023/02/26 05:27:31;;;;;;;;;;;;;;;;;;8446184;27;28604;-82
2023/02/26 05:31:31;;;;;;;;;;;;;;;;;;8434860;27;28812;-83
2023/02/26 05:35:31;;;;;;;;;;;;;;;;;;8448430;27;28315;-82
2023/02/26 05:39:31;;;;;;;;;;;;;;;;;;8447599;27;27443;-81
2023/02/26 05:43:32;;;;;;;;;;;;;;;;;;8453024;27;28450;-82
2023/02/26 05:47:32;;;;;;;;;;;;;;;;;;8430406;27;28559;-81
2023/02/26 05:51:32;;;;;;;;;;;;;;;;;;8430443;27;28643;-81
2023/02/26 05:55:32;;;;;;;;;;;;;;;;;;8449968;27;28414;-83
2023/02/26 05:59:32;;;;;;;;;;;;;;;;;;8445916;27;29828;-83
2023/02/26 06:03:33;;;;;;;;;;;;;;;;;;8443018;27;27861;-83
2023/02/26 06:07:33;;;;;;;;;;;;;;;;;;8443284;27;28693;-83
2023/02/26 06:11:33;;;;;;;;;;;;;;;;;;8450117;27;28844;-83
2023/02/26 06:15:33;;;;;;;;;;;;;;;;;;8447330;27;28531;-84
2023/02/26 06:19:33;;;;;;;;;;;;;;;;;;8447766;27;27238;-84
2023/02/26 06:23:33;;;;;;;;;;;;;;;;;;8450399;27;27208;-82
2023/02/26 06:27:33;;;;;;;;;;;;;;;;;;8443719;27;28926;-83
2023/02/26 06:31:33;;;;;;;;;;;;;;;;;;8435140;27;27946;-82
2023/02/26 06:35:34;;;;;;;;;;;;;;;;;;8453521;27;27391;-82
2023/02/26 06:39:34;;;;;;;;;;;;;;;;;;8447868;27;27298;-82
2023/02/26 06:43:34;;;;;;;;;;;;;;;;;;8446712;27;28378;-82
2023/02/26 06:47:34;;;;;;;;;;;;;;;;;;8431326;27;27191;-82
2023/02/26 06:51:34;;;;;;;;;;;;;;;;;;8428041;27;28526;-83
2023/02/26 06:55:34;;;;;;;;;;;;;;;;;;8450127;27;28227;-83
2023/02/26 06:59:34;;;;;;;;;;;;;;;;;;8424748;27;28817;-83
2023/02/26 07:03:34;;;;;;;;;;;;;;;;;;8442142;27;28433;-82
2023/02/26 07:07:34;;;;;;;;;;;;;;;;;;8446469;27;28559;-82
2023/02/26 07:11:34;;;;;;;;;;;;;;;;;;8444070;27;28277;-82
2023/02/26 07:15:34;;;;;;;;;;;;;;;;;;8441604;27;28400;-83
2023/02/26 07:19:35;;;;;;;;;;;;;;;;;;8440633;27;29426;-82
2023/02/26 07:23:35;;;;;;;;;;;;;;;;;;8444800;27;28583;-82
2023/02/26 07:27:35;;;;;;;;;;;;;;;;;;8441464;27;29969;-82
2023/02/26 07:31:35;;;;;;;;;;;;;;;;;;8440776;27;28703;-81
2023/02/26 07:35:36;;;;;;;;;;;;;;;;;;8443082;27;28878;-81
2023/02/26 07:39:36;;;;;;;;;;;;;;;;;;8442852;27;28503;-82
2023/02/26 07:43:36;;;;;;;;;;;;;;;;;;8444835;27;29947;-83
2023/02/26 07:47:36;;;;;;;;;;;;;;;;;;8443349;27;28926;-83
2023/02/26 07:51:37;;;;;;;;;;;;;;;;;;8444731;27;28975;-80
2023/02/26 07:55:37;;;;;;;;;;;;;;;;;;8445552;27;28346;-81
2023/02/26 07:59:37;;;;;;;;;;;;;;;;;;8442573;27;27317;-83
2023/02/26 08:03:37;;;;;;;;;;;;;;;;;;8424466;27;28368;-82
2023/02/26 08:07:37;;;;;;;;;;;;;;;;;;8417453;27;28188;-83
2023/02/26 08:11:39;;;;;;;;;;;;;;;;;;8442016;27;27937;-79
2023/02/26 08:15:42;;;;;;;;;;;;;;;;;;8444333;27;28649;-81
2023/02/26 08:19:43;;;;;;;;;;;;;;;;;;8447894;27;29037;-82
2023/02/26 08:23:43;;;;;;;;;;;;;;;;;;8443542;27;27201;-80
2023/02/26 08:27:43;;;;;;;;;;;;;;;;;;8447966;27;27594;-82
2023/02/26 08:31:43;;;;;;;;;;;;;;;;;;8447082;27;28152;-81
2023/02/26 08:35:43;;;;;;;;;;;;;;;;;;8450605;27;28846;-80
2023/02/26 08:39:43;;;;;;;;;;;;;;;;;;8449750;27;27954;-82
2023/02/26 08:43:43;;;;;;;;;;;;;;;;;;8429241;27;28419;-80
2023/02/26 08:47:44;;;;;;;;;;;;;;;;;;8443531;27;28614;-81
2023/02/26 08:51:44;;;;;;;;;;;;;;;;;;8452155;27;28500;-81
2023/02/26 08:55:44;;;;;;;;;;;;;;;;;;8449454;27;27168;-81
2023/02/26 08:59:44;;;;;;;;;;;;;;;;;;8449849;27;28650;-81
2023/02/26 09:03:44;;;;;;;;;;;;;;;;;;8445738;27;28954;-81
2023/02/26 09:07:45;;;;;;;;;;;;;;;;;;8454481;27;29631;-82
2023/02/26 09:11:45;;;;;;;;;;;;;;;;;;8446833;27;27898;-81
2023/02/26 09:15:45;;;;;;;;;;;;;;;;;;8429280;27;28409;-80
2023/02/26 09:19:45;;;;;;;;;;;;;;;;;;8444784;27;27785;-80
2023/02/26 09:23:45;;;;;;;;;;;;;;;;;;8439744;27;27253;-79
2023/02/26 09:27:45;;;;;;;;;;;;;;;;;;8449140;27;27415;-81
2023/02/26 09:31:45;;;;;;;;;;;;;;;;;;8444374;27;27435;-80
2023/02/26 09:35:45;;;;;;;;;;;;;;;;;;8431923;27;28178;-82
2023/02/26 09:39:45;;;;;;;;;;;;;;;;;;8455282;27;28272;-82
2023/02/26 09:43:45;;;;;;;;;;;;;;;;;;8434025;27;28837;-81
2023/02/26 09:47:46;;;;;;;;;;;;;;;;;;8454136;27;27085;-81
2023/02/26 09:51:46;;;;;;;;;;;;;;;;;;8444372;27;28742;-81
2023/02/26 09:55:46;;;;;;;;;;;;;;;;;;8433368;27;29648;-82
2023/02/26 09:59:46;;;;;;;;;;;;;;;;;;8450582;27;27623;-81
2023/02/26 10:03:46;;;;;;;;;;;;;;;;;;8447071;27;28923;-84
2023/02/26 10:07:46;;;;;;;;;;;;;;;;;;8450194;27;28437;-82
2023/02/26 10:11:47;;;;;;;;;;;;;;;;;;8449473;27;28676;-82
2023/02/26 10:15:47;;;;;;;;;;;;;;;;;;8446235;27;28173;-80
2023/02/26 10:19:47;;;;;;;;;;;;;;;;;;8450439;27;28112;-82
2023/02/26 10:23:47;;;;;;;;;;;;;;;;;;8444227;27;27374;-81
2023/02/26 10:27:47;;;;;;;;;;;;;;;;;;8451765;27;27550;-83
2023/02/26 10:31:47;;;;;;;;;;;;;;;;;;8450673;27;28199;-81
2023/02/26 10:35:48;;;;;;;;;;;;;;;;;;8452473;27;28785;-82
2023/02/26 10:39:48;;;;;;;;;;;;;;;;;;8446200;27;28523;-82
2023/02/26 10:43:48;;;;;;;;;;;;;;;;;;8446784;27;28189;-82
2023/02/26 10:47:48;;;;;;;;;;;;;;;;;;8444905;27;28742;-80
2023/02/26 10:51:51;;;;;;;;;;;;;;;;;;8449982;27;27446;-81
2023/02/26 10:55:51;;;;;;;;;;;;;;;;;;8447442;27;28050;-80
2023/02/26 10:59:51;;;;;;;;;;;;;;;;;;8451716;27;27429;-80
2023/02/26 11:03:51;;;;;;;;;;;;;;;;;;8428399;27;28161;-79
2023/02/26 11:07:52;;;;;;;;;;;;;;;;;;8431587;27;28383;-81
2023/02/26 11:11:52;;;;;;;;;;;;;;;;;;8428541;27;27275;-80
2023/02/26 11:15:52;;;;;;;;;;;;;;;;;;8444450;27;27881;-81
2023/02/26 11:19:52;;;;;;;;;;;;;;;;;;8450167;27;27893;-82
2023/02/26 11:23:52;;;;;;;;;;;;;;;;;;8452570;27;28381;-81
2023/02/26 11:27:53;;;;;;;;;;;;;;;;;;8444288;27;29592;-82
2023/02/26 11:31:56;;;;;;;;;;;;;;;;;;8429123;27;28968;-83
2023/02/26 11:35:57;;;;;;;;;;;;;;;;;;8452834;27;28015;-83
2023/02/26 11:39:57;;;;;;;;;;;;;;;;;;8447930;27;28913;-81
2023/02/26 11:43:57;;;;;;;;;;;;;;;;;;8449239;27;28522;-83
2023/02/26 11:47:57;;;;;;;;;;;;;;;;;;8441990;27;27834;-84
2023/02/26 11:51:57;;;;;;;;;;;;;;;;;;8452915;27;29924;-83
2023/02/26 11:55:57;;;;;;;;;;;;;;;;;;8448053;27;27936;-83
2023/02/26 11:59:57;;;;;;;;;;;;;;;;;;8426641;27;29842;-83
2023/02/26 12:03:57;;;;;;;;;;;;;;;;;;8445809;27;28179;-83
2023/02/26 12:07:57;;;;;;;;;;;;;;;;;;8444970;27;28569;-82
2023/02/26 12:11:57;;;;;;;;;;;;;;;;;;8441240;27;28696;-80
2023/02/26 12:15:58;;;;;;;;;;;;;;;;;;8445148;27;27612;-81
2023/02/26 12:19:58;;;;;;;;;;;;;;;;;;8439944;27;27711;-81
2023/02/26 12:23:58;;;;;;;;;;;;;;;;;;8439808;27;28792;-82
2023/02/26 12:27:59;;;;;;;;;;;;;;;;;;8447251;27;28546;-82
2023/02/26 12:31:59;;;;;;;;;;;;;;;;;;8443565;27;27702;-82
2023/02/26 12:35:59;;;;;;;;;;;;;;;;;;8441643;27;28459;-81
2023/02/26 12:39:59;;;;;;;;;;;;;;;;;;8431935;27;28698;-80
2023/02/26 12:43:59;;;;;;;;;;;;;;;;;;8425206;27;28981;-82
2023/02/26 12:47:59;;;;;;;;;;;;;;;;;;8446437;27;28848;-81
2023/02/26 12:51:59;;;;;;;;;;;;;;;;;;8445995;27;28875;-82
2023/02/26 12:55:59;;;;;;;;;;;;;;;;;;8440711;27;28494;-82
2023/02/26 12:59:59;;;;;;;;;;;;;;;;;;8423750;27;28776;-81
2023/02/26 13:04:00;;;;;;;;;;;;;;;;;;8425974;27;28612;-80
2023/02/26 13:08:00;;;;;;;;;;;;;;;;;;8431647;27;28819;-81
2023/02/26 13:12:00;;;;;;;;;;;;;;;;;;8446974;27;28848;-81
2023/02/26 13:16:00;;;;;;;;;;;;;;;;;;8449614;27;28794;-82
2023/02/26 13:20:00;;;;;;;;;;;;;;;;;;8450688;27;28933;-81
2023/02/26 13:24:01;;;;;;;;;;;;;;;;;;8450455;27;29894;-81
2023/02/26 13:28:01;;;;;;;;;;;;;;;;;;8448750;27;28877;-82
2023/02/26 13:32:02;;;;;;;;;;;;;;;;;;8445996;27;27860;-81
2023/02/26 13:36:02;;;;;;;;;;;;;;;;;;8424438;27;29880;-80
2023/02/26 13:40:05;;;;;;;;;;;;;;;;;;8451850;27;27534;-82
2023/02/26 13:44:05;;;;;;;;;;;;;;;;;;8428743;27;29009;-81
2023/02/26 13:48:05;;;;;;;;;;;;;;;;;;8447654;27;28479;-82
2023/02/26 13:52:05;;;;;;;;;;;;;;;;;;8444820;27;28884;-81
2023/02/26 13:56:05;;;;;;;;;;;;;;;;;;8446119;27;28055;-82
2023/02/26 14:00:10;;;;;;;;;;;;;;;;;;8451529;27;27568;-81
2023/02/26 14:04:10;;;;;;;;;;;;;;;;;;8448495;27;27524;-83
2023/02/26 14:08:10;;;;;;;;;;;;;;;;;;8449363;27;28623;-82
2023/02/26 14:12:10;;;;;;;;;;;;;;;;;;8448983;27;27034;-82
2023/02/26 14:16:10;;;;;;;;;;;;;;;;;;8447320;27;28634;-82
2023/02/26 14:20:10;;;;;;;;;;;;;;;;;;8449051;27;27705;-81
2023/02/26 14:24:10;;;;;;;;;;;;;;;;;;8451479;27;27454;-81
2023/02/26 14:28:10;;;;;;;;;;;;;;;;;;8457770;27;28619;-80
2023/02/26 14:32:11;;;;;;;;;;;;;;;;;;8454820;27;27397;-81
2023/02/26 14:36:11;;;;;;;;;;;;;;;;;;8455059;27;28319;-81
2023/02/26 14:40:11;;;;;;;;;;;;;;;;;;8450727;27;28018;-81
2023/02/26 14:44:11;;;;;;;;;;;;;;;;;;8450269;27;28730;-79
2023/02/26 14:48:11;;;;;;;;;;;;;;;;;;8447315;27;28255;-80
2023/02/26 14:52:11;;;;;;;;;;;;;;;;;;8449130;27;28359;-81
2023/02/26 14:56:11;;;;;;;;;;;;;;;;;;8446848;27;27336;-80
2023/02/26 15:00:12;;;;;;;;;;;;;;;;;;8445866;27;28824;-80
2023/02/26 15:04:12;;;;;;;;;;;;;;;;;;8445179;27;27884;-80
2023/02/26 15:08:12;;;;;;;;;;;;;;;;;;8438511;27;27593;-81
2023/02/26 15:12:12;;;;;;;;;;;;;;;;;;8448977;27;28497;-81
2023/02/26 15:16:12;;;;;;;;;;;;;;;;;;8446072;27;28510;-81
2023/02/26 15:20:13;;;;;;;;;;;;;;;;;;8449358;27;28625;-81
2023/02/26 15:24:14;;;;;;;;;;;;;;;;;;8446061;27;27414;-80
2023/02/26 15:28:14;;;;;;;;;;;;;;;;;;8444923;27;27387;-80
2023/02/26 15:32:14;;;;;;;;;;;;;;;;;;8443287;27;28513;-80
2023/02/26 15:36:15;;;;;;;;;;;;;;;;;;8443813;27;28498;-80
2023/02/26 15:40:15;;;;;;;;;;;;;;;;;;8429989;27;28551;-79
2023/02/26 15:44:15;;;;;;;;;;;;;;;;;;8447988;27;29500;-79
2023/02/26 15:48:15;;;;;;;;;;;;;;;;;;8442348;27;27910;-80
2023/02/26 15:52:15;;;;;;;;;;;;;;;;;;8441039;27;29823;-80
2023/02/26 15:56:18;;;;;;;;;;;;;;;;;;8442710;27;28108;-80
2023/02/26 16:00:24;;;;;;;;;;;;;;;;;;8448587;27;28397;-80
2023/02/26 16:04:24;;;;;;;;;;;;;;;;;;8437189;27;28971;-79
2023/02/26 16:08:24;;;;;;;;;;;;;;;;;;8444144;27;29748;-79
2023/02/26 16:12:25;;;;;;;;;;;;;;;;;;8446523;27;27836;-79
2023/02/26 16:16:25;;;;;;;;;;;;;;;;;;8441822;27;29037;-80
2023/02/26 16:20:25;;;;;;;;;;;;;;;;;;8425450;27;28665;-81
2023/02/26 16:24:25;;;;;;;;;;;;;;;;;;8443684;27;28166;-80
2023/02/26 16:28:25;;;;;;;;;;;;;;;;;;8441312;27;28467;-80
2023/02/26 16:32:25;;;;;;;;;;;;;;;;;;8446273;27;28955;-79
2023/02/26 16:36:27;;;;;;;;;;;;;;;;;;8439937;27;27650;-80
2023/02/26 16:40:27;;;;;;;;;;;;;;;;;;8455234;27;28228;-80
2023/02/26 16:44:27;;;;;;;;;;;;;;;;;;8433508;27;29945;-78
2023/02/26 16:48:27;;;;;;;;;;;;;;;;;;8447907;27;27431;-80
2023/02/26 16:52:27;;;;;;;;;;;;;;;;;;8450576;27;27205;-80
2023/02/26 16:56:27;;;;;;;;;;;;;;;;;;8429914;27;28848;-79
2023/02/26 17:00:30;;;;;;;;;;;;;;;;;;8452582;27;27419;-78
2023/02/26 17:04:30;;;;;;;;;;;;;;;;;;8451107;27;27634;-78
2023/02/26 17:08:30;;;;;;;;;;;;;;;;;;8450906;27;27768;-81
2023/02/26 17:12:30;;;;;;;;;;;;;;;;;;8450646;27;27469;-80
2023/02/26 17:16:31;;;;;;;;;;;;;;;;;;8443133;27;27292;-80
2023/02/26 17:20:31;;;;;;;;;;;;;;;;;;8430650;27;29294;-79
2023/02/26 17:24:31;;;;;;;;;;;;;;;;;;8447070;27;28827;-78
2023/02/26 17:28:33;;;;;;;;;;;;;;;;;;8427244;27;28852;-79
2023/02/26 17:32:34;;;;;;;;;;;;;;;;;;8399772;27;28172;-80
2023/02/26 17:36:34;;;;;;;;;;;;;;;;;;8390017;27;28595;-78
2023/02/26 17:40:38;;;;;;;;;;;;;;;;;;8323249;27;29768;-79
2023/02/26 17:44:38;;;;;;;;;;;;;;;;;;8448216;27;27973;-78
2023/02/26 17:48:38;;;;;;;;;;;;;;;;;;8424881;27;28433;-80
2023/02/26 17:52:38;;;;;;;;;;;;;;;;;;8442853;27;28079;-81
2023/02/26 17:56:40;;;;;;;;;;;;;;;;;;8448789;27;28035;-79
2023/02/26 18:00:41;;;;;;;;;;;;;;;;;;8447974;27;27603;-80
2023/02/26 18:04:41;;;;;;;;;;;;;;;;;;8445060;27;28133;-79
2023/02/26 18:08:41;;;;;;;;;;;;;;;;;;8449693;27;28207;-80
2023/02/26 18:12:42;;;;;;;;;;;;;;;;;;8435346;27;28955;-78
2023/02/26 18:16:44;;;;;;;;;;;;;;;;;;8432192;27;28512;-77
2023/02/26 18:20:44;;;;;;;;;;;;;;;;;;8425326;27;29248;-81
2023/02/26 18:24:44;;;;;;;;;;;;;;;;;;8440951;27;29049;-81
2023/02/26 18:28:45;;;;;;;;;;;;;;;;;;8447065;27;27174;-79
2023/02/26 18:32:45;;;;;;;;;;;;;;;;;;8448642;27;27430;-78
2023/02/26 18:36:45;;;;;;;;;;;;;;;;;;8422074;27;28438;-78
2023/02/26 18:40:45;;;;;;;;;;;;;;;;;;8445827;27;27491;-79
2023/02/26 18:44:45;;;;;;;;;;;;;;;;;;8445072;27;27709;-79
2023/02/26 18:48:46;;;;;;;;;;;;;;;;;;8428514;27;29870;-78
2023/02/26 18:52:46;;;;;;;;;;;;;;;;;;8443018;27;27499;-80
2023/02/26 18:56:46;;;;;;;;;;;;;;;;;;8425597;27;28626;-78
2023/02/26 19:00:46;;;;;;;;;;;;;;;;;;8444513;27;27726;-80
2023/02/26 19:04:48;;;;;;;;;;;;;;;;;;8427861;27;48680;-80
2023/02/26 19:08:48;;;;;;;;;;;;;;;;;;8453482;27;29002;-80
2023/02/26 19:12:49;;;;;;;;;;;;;;;;;;8425613;27;29894;-77
2023/02/26 19:16:49;;;;;;;;;;;;;;;;;;8441975;27;27918;-80
2023/02/26 19:20:50;;;;;;;;;;;;;;;;;;8440893;27;27385;-79
2023/02/26 19:24:50;;;;;;;;;;;;;;;;;;8424561;27;29686;-79
2023/02/26 19:28:51;;;;;;;;;;;;;;;;;;8431396;27;28683;-80
2023/02/26 19:32:53;;;;;;;;;;;;;;;;;;8445861;27;28051;-79
2023/02/26 19:36:53;;;;;;;;;;;;;;;;;;8439783;27;29876;-79
2023/02/26 19:40:54;;;;;;;;;;;;;;;;;;8438804;27;27359;-79
2023/02/26 19:44:54;;;;;;;;;;;;;;;;;;8426041;27;29857;-80
2023/02/26 19:48:54;;;;;;;;;;;;;;;;;;8425539;27;28866;-79
2023/02/26 19:52:54;;;;;;;;;;;;;;;;;;8442868;27;28677;-79
2023/02/26 19:56:55;;;;;;;;;;;;;;;;;;8423793;27;28907;-78
2023/02/26 20:00:55;;;;;;;;;;;;;;;;;;8445969;27;27151;-79
2023/02/26 20:04:55;;;;;;;;;;;;;;;;;;8440838;27;28502;-79
2023/02/26 20:08:55;;;;;;;;;;;;;;;;;;8440897;27;28446;-79
2023/02/26 20:12:57;;;;;;;;;;;;;;;;;;8445222;27;27281;-77
2023/02/26 20:16:57;;;;;;;;;;;;;;;;;;8423080;27;29975;-79
2023/02/26 20:20:57;;;;;;;;;;;;;;;;;;8441465;27;28642;-79
2023/02/26 20:24:57;;;;;;;;;;;;;;;;;;8443991;27;28180;-79
2023/02/26 20:28:57;;;;;;;;;;;;;;;;;;8445666;27;27538;-79
2023/02/26 20:32:57;;;;;;;;;;;;;;;;;;8448414;27;28773;-79
2023/02/26 20:36:57;;;;;;;;;;;;;;;;;;8445346;27;28718;-80
2023/02/26 20:40:57;;;;;;;;;;;;;;;;;;8446229;27;28704;-77
2023/02/26 20:44:57;;;;;;;;;;;;;;;;;;8444799;27;28840;-80
2023/02/26 20:48:58;;;;;;;;;;;;;;;;;;8450043;27;27530;-79
2023/02/26 20:52:58;;;;;;;;;;;;;;;;;;8446602;27;29071;-79
2023/02/26 20:56:58;;;;;;;;;;;;;;;;;;8446293;27;27352;-79
2023/02/26 21:00:58;;;;;;;;;;;;;;;;;;8445194;27;28866;-79
2023/02/26 21:04:59;;;;;;;;;;;;;;;;;;8443221;27;29042;-80
2023/02/26 21:09:00;;;;;;;;;;;;;;;;;;8439421;27;27301;-79
2023/02/26 21:13:00;;;;;;;;;;;;;;;;;;8422799;27;28581;-79
2023/02/26 21:17:00;;;;;;;;;;;;;;;;;;8425627;27;28507;-78
2023/02/26 21:21:00;;;;;;;;;;;;;;;;;;8447682;27;27173;-78
2023/02/26 21:25:00;;;;;;;;;;;;;;;;;;8445098;27;28529;-78
2023/02/26 21:29:01;;;;;;;;;;;;;;;;;;8436594;27;28344;-77
2023/02/26 21:33:01;;;;;;;;;;;;;;;;;;8443734;27;28536;-79
2023/02/26 21:37:01;;;;;;;;;;;;;;;;;;8423537;27;29043;-79
2023/02/26 21:41:02;;;;;;;;;;;;;;;;;;8442542;27;27867;-79
2023/02/26 21:45:02;;;;;;;;;;;;;;;;;;8434450;27;28000;-78
2023/02/26 21:49:02;;;;;;;;;;;;;;;;;;8421022;27;28560;-79
2023/02/26 21:53:02;;;;;;;;;;;;;;;;;;8436586;27;27124;-79
2023/02/26 21:57:02;;;;;;;;;;;;;;;;;;8436646;27;28414;-80
2023/02/26 22:01:02;;;;;;;;;;;;;;;;;;8439452;27;28687;-79
2023/02/26 22:05:02;;;;;;;;;;;;;;;;;;8440320;27;28676;-78
2023/02/26 22:09:02;;;;;;;;;;;;;;;;;;8418485;27;28286;-78
2023/02/26 22:13:02;;;;;;;;;;;;;;;;;;8436830;27;27375;-80
2023/02/26 22:17:03;;;;;;;;;;;;;;;;;;8419762;27;29061;-79
2023/02/26 22:21:03;;;;;;;;;;;;;;;;;;8418062;27;28407;-79
2023/02/26 22:25:03;;;;;;;;;;;;;;;;;;8433387;27;27654;-79
2023/02/26 22:29:03;;;;;;;;;;;;;;;;;;8438837;27;28664;-77
2023/02/26 22:33:03;;;;;;;;;;;;;;;;;;8419319;27;29559;-78
2023/02/26 22:37:03;;;;;;;;;;;;;;;;;;8435851;27;27978;-80
2023/02/26 22:41:03;;;;;;;;;;;;;;;;;;8436555;27;28904;-78
2023/02/26 22:45:03;;;;;;;;;;;;;;;;;;8418234;27;28553;-79
2023/02/26 22:49:03;;;;;;;;;;;;;;;;;;8434823;27;28528;-79
2023/02/26 22:53:05;;;;;;;;;;;;;;;;;;8436384;27;27601;-78
2023/02/26 22:57:06;;;;;;;;;;;;;;;;;;8441570;27;27935;-79
2023/02/26 23:01:06;;;;;;;;;;;;;;;;;;8437568;27;28423;-79
2023/02/26 23:05:07;;;;;;;;;;;;;;;;;;8443646;27;28498;-79
2023/02/26 23:09:07;;;;;;;;;;;;;;;;;;8447457;27;28828;-79
2023/02/26 23:13:07;;;;;;;;;;;;;;;;;;8447554;27;28189;-79
2023/02/26 23:17:07;;;;;;;;;;;;;;;;;;8427781;27;28148;-79
2023/02/26 23:21:07;;;;;;;;;;;;;;;;;;8446303;27;27686;-79
2023/02/26 23:25:07;;;;;;;;;;;;;;;;;;8430926;27;29279;-78
2023/02/26 23:29:07;;;;;;;;;;;;;;;;;;8452744;27;27184;-79
2023/02/26 23:33:09;;;;;;;;;;;;;;;;;;8443710;27;27169;-77
2023/02/26 23:37:09;;;;;;;;;;;;;;;;;;8442778;27;29172;-79
2023/02/26 23:41:09;;;;;;;;;;;;;;;;;;8426102;27;28661;-79
2023/02/26 23:45:09;;;;;;;;;;;;;;;;;;8425825;27;29950;-80
2023/02/26 23:49:09;;;;;;;;;;;;;;;;;;8446344;27;28607;-79
2023/02/26 23:53:09;;;;;;;;;;;;;;;;;;8430777;27;28529;-79
2023/02/26 23:57:09;;;;;;;;;;;;;;;;;;8444863;27;27147;-79
